Time;durP1;ratioP1;P1;durP2;ratioP2;P2;SDS_P1;SDS_P2;PMS_P1;PMS_P2;Temp;Humidity;BMP_temperature;BMP_pressure;BME280_temperature;BME280_humidity;BME280_pressure;Samples;Min_cycle;Max_cycle;Signal;HPM_P1;HPM_P2
2022/11/26 00:00:41;;;;;;;;;;;;;;;4.49;60.10;95689.50;5114206;28;987;-59
2022/11/26 00:03:08;;;;;;;;;;;;;;;4.44;59.99;95688.13;5113889;28;1036;-59
2022/11/26 00:05:34;;;;;;;;;;;;;;;4.43;59.96;95697.88;5113823;28;1153;-59
2022/11/26 00:08:01;;;;;;;;;;;;;;;4.24;60.45;95698.34;5114020;28;1992;-59
2022/11/26 00:10:29;;;;;;;;;;;;;;;4.17;61.49;95685.66;5113951;28;1111;-59
2022/11/26 00:12:55;;;;;;;;;;;;;;;4.38;60.66;95688.56;5113991;28;1071;-59
2022/11/26 00:15:23;;;;;;;;;;;;;;;4.38;60.29;95688.56;5113825;28;1203;-60
2022/11/26 00:17:49;;;;;;;;;;;;;;;4.37;60.47;95695.69;5113913;28;1047;-59
2022/11/26 00:20:16;;;;;;;;;;;;;;;4.17;60.99;95696.25;5113693;28;1193;-59
2022/11/26 00:22:49;;;;;;;;;;;;;;;4.24;60.13;95702.81;5113768;28;1039;-59
2022/11/26 00:25:21;;;;;;;;;;;;;;;4.25;60.01;95700.06;5113916;28;1147;-59
2022/11/26 00:27:48;;;;;;;;;;;;;;;4.17;59.84;95704.19;5115512;28;1953;-59
2022/11/26 00:30:19;;;;;;;;;;;;;;;4.05;60.48;95700.63;5118071;28;955;-60
2022/11/26 00:32:45;;;;;;;;;;;;;;;3.92;61.96;95705.91;5117996;28;1094;-60
2022/11/26 00:35:11;;;;;;;;;;;;;;;3.98;62.12;95716.06;5117901;28;940;-59
2022/11/26 00:37:46;;;;;;;;;;;;;;;4.08;61.72;95716.28;5118051;28;1070;-59
2022/11/26 00:40:19;;;;;;;;;;;;;;;4.16;60.68;95718.41;5117948;28;976;-59
2022/11/26 00:42:45;;;;;;;;;;;;;;;4.11;60.33;95724.00;5117845;28;1066;-59
2022/11/26 00:45:25;;;;;;;;;;;;;;;3.97;60.51;95722.31;5117741;28;1229;-60
2022/11/26 00:47:51;;;;;;;;;;;;;;;3.75;61.85;95722.94;5117600;27;1911;-60
2022/11/26 00:50:19;;;;;;;;;;;;;;;3.77;62.97;95725.50;5117733;28;992;-59
2022/11/26 00:52:46;;;;;;;;;;;;;;;3.68;63.84;95727.81;5117710;28;1095;-59
2022/11/26 00:55:23;;;;;;;;;;;;;;;3.86;61.79;95719.56;5117594;28;992;-59
2022/11/26 00:57:49;;;;;;;;;;;;;;;4.01;60.84;95729.09;5117531;28;1003;-59
2022/11/26 01:00:17;;;;;;;;;;;;;;;3.92;62.01;95738.50;5117652;28;1051;-59
2022/11/26 01:02:43;;;;;;;;;;;;;;;4.04;61.79;95741.25;5117588;28;1043;-59
2022/11/26 01:05:09;;;;;;;;;;;;;;;4.09;60.49;95732.03;5117129;28;1206;-59
2022/11/26 01:07:35;;;;;;;;;;;;;;;3.81;60.94;95726.97;5117282;28;1917;-59
2022/11/26 01:10:01;;;;;;;;;;;;;;;3.74;61.69;95733.63;5117180;28;1055;-59
2022/11/26 01:12:27;;;;;;;;;;;;;;;3.53;62.76;95744.75;5117221;28;983;-59
2022/11/26 01:14:53;;;;;;;;;;;;;;;3.63;62.73;95743.16;5117054;28;1096;-59
2022/11/26 01:17:19;;;;;;;;;;;;;;;3.77;63.13;95760.72;5115980;28;1044;-59
2022/11/26 01:19:46;;;;;;;;;;;;;;;3.87;61.69;95759.16;5116043;28;968;-59
2022/11/26 01:22:19;;;;;;;;;;;;;;;3.92;60.51;95761.47;5117056;28;992;-59
2022/11/26 01:24:46;;;;;;;;;;;;;;;3.88;60.57;95765.28;5117080;27;1054;-59
2022/11/26 01:27:12;;;;;;;;;;;;;;;3.85;60.71;95765.47;5116780;28;1031;-59
2022/11/26 01:29:38;;;;;;;;;;;;;;;3.75;61.15;95757.34;5117154;28;956;-59
2022/11/26 01:32:04;;;;;;;;;;;;;;;3.56;62.46;95757.72;5116918;28;975;-59
2022/11/26 01:34:30;;;;;;;;;;;;;;;3.77;61.64;95754.59;5116959;28;952;-59
2022/11/26 01:36:56;;;;;;;;;;;;;;;3.87;60.95;95755.63;5116831;28;948;-59
2022/11/26 01:39:22;;;;;;;;;;;;;;;3.82;61.34;95741.91;5116690;28;1001;-60
2022/11/26 01:41:54;;;;;;;;;;;;;;;3.79;61.34;95737.66;5116630;27;1039;-59
2022/11/26 01:44:22;;;;;;;;;;;;;;;3.70;62.28;95748.88;5116435;28;1150;-60
2022/11/26 01:46:49;;;;;;;;;;;;;;;3.66;62.92;95737.66;5116803;28;976;-59
2022/11/26 01:49:22;;;;;;;;;;;;;;;3.71;62.36;95735.53;5116409;28;1985;-59
2022/11/26 01:51:57;;;;;;;;;;;;;;;3.83;61.70;95740.94;5116444;28;1090;-59
2022/11/26 01:54:23;;;;;;;;;;;;;;;3.84;61.17;95737.34;5116947;27;1038;-59
2022/11/26 01:56:51;;;;;;;;;;;;;;;3.65;62.25;95732.47;5116625;28;1071;-59
2022/11/26 01:59:23;;;;;;;;;;;;;;;3.63;62.58;95723.81;5116540;28;1027;-59
2022/11/26 02:01:51;;;;;;;;;;;;;;;3.65;62.19;95722.72;5116386;28;991;-59
2022/11/26 02:04:23;;;;;;;;;;;;;;;3.59;63.03;95719.69;5116303;28;1089;-59
2022/11/26 02:06:50;;;;;;;;;;;;;;;3.63;63.70;95718.50;5116169;28;1003;-59
2022/11/26 02:09:16;;;;;;;;;;;;;;;3.81;61.93;95724.31;5116272;28;1988;-60
2022/11/26 02:11:43;;;;;;;;;;;;;;;3.72;62.11;95721.38;5116093;28;1060;-59
2022/11/26 02:14:15;;;;;;;;;;;;;;;3.67;61.98;95726.13;5115962;28;1028;-59
2022/11/26 02:16:47;;;;;;;;;;;;;;;3.73;61.39;95730.16;5115983;28;1012;-59
2022/11/26 02:19:32;;;;;;;;;;;;;;;3.62;61.02;95733.50;5115812;28;1011;-59
2022/11/26 02:22:09;;;;;;;;;;;;;;;3.41;62.69;95738.47;5115810;28;1102;-59
2022/11/26 02:25:07;;;;;;;;;;;;;;;3.50;63.20;95744.94;5116057;28;984;-59
2022/11/26 02:28:12;;;;;;;;;;;;;;;3.59;60.89;95740.84;5070917;28;2004;-60
2022/11/26 02:30:40;;;;;;;;;;;;;;;3.37;61.69;95739.63;5032977;28;1414;-59
2022/11/26 02:33:10;;;;;;;;;;;;;;;3.19;62.83;95754.03;5032886;28;965;-59
2022/11/26 02:35:36;;;;;;;;;;;;;;;3.21;63.53;95755.66;5075727;28;1052;-59
2022/11/26 02:38:10;;;;;;;;;;;;;;;3.27;63.05;95763.19;5115441;28;980;-59
2022/11/26 02:40:36;;;;;;;;;;;;;;;3.38;61.34;95759.84;5115539;28;1083;-59
2022/11/26 02:43:02;;;;;;;;;;;;;;;3.39;60.92;95756.22;5115620;28;1059;-59
2022/11/26 02:45:39;;;;;;;;;;;;;;;3.26;61.59;95757.97;5114208;28;1271;-59
2022/11/26 02:48:08;;;;;;;;;;;;;;;3.22;61.91;95767.06;5115400;28;1914;-59
2022/11/26 02:50:38;;;;;;;;;;;;;;;3.21;61.91;95782.09;5114815;28;952;-59
2022/11/26 02:53:06;;;;;;;;;;;;;;;3.14;62.17;95775.50;5115482;28;973;-60
2022/11/26 02:55:34;;;;;;;;;;;;;;;3.04;63.20;95774.41;5115681;28;1011;-59
2022/11/26 02:58:00;;;;;;;;;;;;;;;2.88;64.48;95772.78;5115282;28;1011;-59
2022/11/26 03:00:26;;;;;;;;;;;;;;;3.11;61.51;95781.84;5115281;28;967;-59
2022/11/26 03:03:01;;;;;;;;;;;;;;;3.15;61.68;95782.50;5115108;28;1051;-59
2022/11/26 03:05:30;;;;;;;;;;;;;;;2.98;63.17;95782.72;5114907;28;1125;-59
2022/11/26 03:07:56;;;;;;;;;;;;;;;3.08;61.40;95786.47;5115069;27;1886;-59
2022/11/26 03:10:28;;;;;;;;;;;;;;;3.00;62.77;95789.63;5114931;28;1114;-60
2022/11/26 03:12:54;;;;;;;;;;;;;;;3.15;60.99;95790.44;5114959;28;1178;-59
2022/11/26 03:15:20;;;;;;;;;;;;;;;3.05;60.93;95791.94;5114855;27;1016;-60
2022/11/26 03:17:47;;;;;;;;;;;;;;;2.94;62.33;95784.75;5114788;28;1052;-59
2022/11/26 03:20:13;;;;;;;;;;;;;;;2.43;64.34;95777.38;5114677;27;1054;-59
2022/11/26 03:22:39;;;;;;;;;;;;;;;2.45;65.26;95783.41;5114674;28;1060;-59
2022/11/26 03:25:06;;;;;;;;;;;;;;;2.62;64.79;95790.28;5114799;28;1044;-59
2022/11/26 03:27:32;;;;;;;;;;;;;;;2.93;61.97;95794.44;5114675;28;1996;-60
2022/11/26 03:29:58;;;;;;;;;;;;;;;3.02;61.59;95806.22;5113362;28;967;-59
2022/11/26 03:32:24;;;;;;;;;;;;;;;3.02;61.17;95802.75;5114482;28;1011;-59
2022/11/26 03:34:50;;;;;;;;;;;;;;;2.89;61.55;95806.16;5114524;28;1028;-60
2022/11/26 03:37:17;;;;;;;;;;;;;;;2.90;61.70;95801.72;5114423;28;1079;-60
2022/11/26 03:39:43;;;;;;;;;;;;;;;2.69;63.02;95802.16;5114571;28;1267;-59
2022/11/26 03:42:09;;;;;;;;;;;;;;;2.68;62.68;95800.44;5113039;28;1068;-60
2022/11/26 03:44:35;;;;;;;;;;;;;;;2.77;62.10;95808.72;5147214;27;1091;-60
2022/11/26 03:47:01;;;;;;;;;;;;;;;2.87;61.63;95809.84;5114296;28;964;-60
2022/11/26 03:49:27;;;;;;;;;;;;;;;2.79;61.34;95812.97;5114091;28;1979;-60
2022/11/26 03:51:53;;;;;;;;;;;;;;;2.52;62.75;95813.78;5114353;28;1003;-60
2022/11/26 03:54:19;;;;;;;;;;;;;;;2.49;64.03;95816.59;5113158;28;1029;-60
2022/11/26 03:56:45;;;;;;;;;;;;;;;2.64;64.58;95821.88;5114309;28;1007;-60
2022/11/26 03:59:11;;;;;;;;;;;;;;;2.90;63.38;95825.47;5113984;28;1123;-60
2022/11/26 04:01:38;;;;;;;;;;;;;;;3.02;61.86;95830.00;5113426;28;1046;-60
2022/11/26 04:04:04;;;;;;;;;;;;;;;3.06;60.59;95831.50;5113623;28;1260;-60
2022/11/26 04:06:30;;;;;;;;;;;;;;;2.95;60.56;95827.84;5114222;28;985;-59
2022/11/26 04:08:56;;;;;;;;;;;;;;;2.76;61.25;95823.72;5113996;28;1993;-60
2022/11/26 04:11:22;;;;;;;;;;;;;;;2.61;62.58;95830.81;5113932;28;1103;-59
2022/11/26 04:13:48;;;;;;;;;;;;;;;2.64;62.33;95835.06;5114019;28;960;-60
2022/11/26 04:16:14;;;;;;;;;;;;;;;2.73;62.08;95827.41;5113803;28;1040;-60
2022/11/26 04:18:40;;;;;;;;;;;;;;;2.75;62.07;95827.31;5114350;28;1114;-60
2022/11/26 04:21:07;;;;;;;;;;;;;;;2.58;63.07;95833.66;5114001;28;968;-60
2022/11/26 04:23:33;;;;;;;;;;;;;;;2.56;63.48;95835.53;5114047;28;933;-60
2022/11/26 04:25:59;;;;;;;;;;;;;;;2.62;63.60;95832.53;5113821;28;1112;-59
2022/11/26 04:28:26;;;;;;;;;;;;;;;2.63;62.81;95839.50;5113807;28;1913;-60
2022/11/26 04:30:52;;;;;;;;;;;;;;;2.78;62.04;95836.84;5113750;28;1067;-60
2022/11/26 04:33:18;;;;;;;;;;;;;;;2.76;61.98;95834.28;5112507;28;1029;-59
2022/11/26 04:35:44;;;;;;;;;;;;;;;2.78;61.69;95839.47;5112787;28;1664;-60
2022/11/26 04:38:10;;;;;;;;;;;;;;;2.82;61.45;95838.34;5113542;28;1037;-60
2022/11/26 04:40:36;;;;;;;;;;;;;;;2.71;61.11;95841.66;5113822;28;1036;-60
2022/11/26 04:43:02;;;;;;;;;;;;;;;2.66;61.27;95843.75;5113696;28;1054;-59
2022/11/26 04:45:28;;;;;;;;;;;;;;;2.60;61.13;95841.47;5113534;28;1099;-60
2022/11/26 04:47:54;;;;;;;;;;;;;;;2.60;61.63;95846.75;5113310;28;1910;-60
2022/11/26 04:50:21;;;;;;;;;;;;;;;2.56;61.59;95854.00;5113519;28;1087;-60
2022/11/26 04:52:48;;;;;;;;;;;;;;;2.51;62.07;95853.47;5113746;28;1064;-59
2022/11/26 04:55:14;;;;;;;;;;;;;;;2.53;62.39;95864.78;5113449;28;1024;-59
2022/11/26 04:57:40;;;;;;;;;;;;;;;2.60;62.71;95865.22;5113996;28;995;-60
2022/11/26 05:00:07;;;;;;;;;;;;;;;2.48;63.59;95872.97;5112280;28;969;-60
2022/11/26 05:02:33;;;;;;;;;;;;;;;2.59;63.12;95869.66;5112202;28;973;-59
2022/11/26 05:04:59;;;;;;;;;;;;;;;2.71;62.14;95873.34;5113487;28;1209;-60
2022/11/26 05:07:25;;;;;;;;;;;;;;;2.71;62.16;95879.50;5113374;28;1995;-59
2022/11/26 05:09:51;;;;;;;;;;;;;;;2.78;61.48;95876.47;5113509;28;1016;-59
2022/11/26 05:12:17;;;;;;;;;;;;;;;2.71;60.14;95876.84;5112115;28;1048;-59
2022/11/26 05:14:43;;;;;;;;;;;;;;;2.47;61.68;95881.00;5116400;28;960;-59
2022/11/26 05:17:09;;;;;;;;;;;;;;;2.44;62.34;95887.28;5117005;28;1067;-58
2022/11/26 05:19:35;;;;;;;;;;;;;;;2.46;62.39;95889.84;5117454;28;1036;-59
2022/11/26 05:22:01;;;;;;;;;;;;;;;2.35;63.10;95893.13;5117003;28;1028;-59
2022/11/26 05:24:27;;;;;;;;;;;;;;;2.16;64.29;95896.03;5117080;28;1011;-59
2022/11/26 05:26:53;;;;;;;;;;;;;;;1.94;66.10;95896.47;5116972;28;961;-59
2022/11/26 05:29:19;;;;;;;;;;;;;;;2.07;64.81;95899.22;5115673;28;1914;-58
2022/11/26 05:31:45;;;;;;;;;;;;;;;2.33;62.52;95901.16;5116901;28;1007;-59
2022/11/26 05:34:11;;;;;;;;;;;;;;;2.33;61.83;95903.81;5116981;28;1000;-59
2022/11/26 05:36:38;;;;;;;;;;;;;;;2.36;62.01;95907.19;5116751;28;1024;-59
2022/11/26 05:39:04;;;;;;;;;;;;;;;2.39;61.31;95909.63;5115569;28;1051;-59
2022/11/26 05:41:30;;;;;;;;;;;;;;;2.11;63.33;95904.22;5116675;28;1020;-59
2022/11/26 05:43:56;;;;;;;;;;;;;;;1.92;64.54;95907.09;5116981;28;1264;-59
2022/11/26 05:46:22;;;;;;;;;;;;;;;2.07;63.58;95910.63;5116484;28;1226;-58
2022/11/26 05:48:48;;;;;;;;;;;;;;;2.14;63.85;95901.41;5116430;28;1909;-59
2022/11/26 05:51:14;;;;;;;;;;;;;;;2.13;64.36;95898.88;5116605;28;955;-58
2022/11/26 05:53:40;;;;;;;;;;;;;;;2.37;63.61;95907.06;5116646;28;1050;-59
2022/11/26 05:56:06;;;;;;;;;;;;;;;2.42;64.16;95904.19;5116484;28;1019;-59
2022/11/26 05:58:32;;;;;;;;;;;;;;;2.60;63.56;95902.19;5116445;28;1034;-59
2022/11/26 06:00:58;;;;;;;;;;;;;;;2.81;61.33;95905.28;5116237;28;1011;-59
2022/11/26 06:03:24;;;;;;;;;;;;;;;2.87;60.33;95903.13;5116583;28;1059;-58
2022/11/26 06:05:50;;;;;;;;;;;;;;;2.84;61.11;95899.84;5116205;28;1184;-59
2022/11/26 06:08:16;;;;;;;;;;;;;;;2.71;61.83;95897.09;5115991;28;2020;-58
2022/11/26 06:10:43;;;;;;;;;;;;;;;2.78;61.79;95901.06;5116163;28;1087;-59
2022/11/26 06:13:09;;;;;;;;;;;;;;;3.32;60.86;95908.28;5116119;28;1000;-59
2022/11/26 06:15:35;;;;;;;;;;;;;;;6.91;52.70;95922.69;5116007;28;968;-59
2022/11/26 06:18:01;;;;;;;;;;;;;;;10.53;44.38;95930.22;5115896;28;1138;-60
2022/11/26 06:20:27;;;;;;;;;;;;;;;11.89;42.20;95945.00;5116260;27;984;-60
2022/11/26 06:22:53;;;;;;;;;;;;;;;13.03;39.91;95955.16;5116036;28;948;-60
2022/11/26 06:25:19;;;;;;;;;;;;;;;12.88;39.84;95957.56;5115076;28;971;-61
2022/11/26 06:27:45;;;;;;;;;;;;;;;12.67;39.84;95955.22;5115846;28;1915;-60
2022/11/26 06:30:12;;;;;;;;;;;;;;;11.55;41.87;95950.94;5115662;27;960;-60
2022/11/26 06:32:38;;;;;;;;;;;;;;;12.59;40.62;95958.66;5115698;28;1096;-59
2022/11/26 06:35:04;;;;;;;;;;;;;;;14.40;37.28;95965.09;5115755;28;1071;-60
2022/11/26 06:37:31;;;;;;;;;;;;;;;13.04;39.26;95962.22;5115599;28;1091;-61
2022/11/26 06:39:57;;;;;;;;;;;;;;;12.68;40.04;95959.59;5115471;28;1028;-61
2022/11/26 06:42:23;;;;;;;;;;;;;;;12.75;40.08;95951.75;5115631;28;956;-61
2022/11/26 06:44:49;;;;;;;;;;;;;;;11.87;41.70;95945.16;5115363;28;1095;-61
2022/11/26 06:47:16;;;;;;;;;;;;;;;12.98;39.81;95954.81;5115651;28;1003;-61
2022/11/26 06:49:42;;;;;;;;;;;;;;;13.12;39.27;95962.28;5115493;28;1894;-60
2022/11/26 06:52:08;;;;;;;;;;;;;;;12.37;40.63;95956.44;5115198;28;1017;-60
2022/11/26 06:54:34;;;;;;;;;;;;;;;12.19;41.19;95964.47;5115365;28;975;-61
2022/11/26 06:57:00;;;;;;;;;;;;;;;12.65;40.21;95974.16;5115238;28;1187;-61
2022/11/26 06:59:26;;;;;;;;;;;;;;;14.46;37.78;95983.25;5115133;28;1098;-61
2022/11/26 07:01:52;;;;;;;;;;;;;;;19.09;31.95;96007.84;5115188;28;1107;-61
2022/11/26 07:04:18;;;;;;;;;;;;;;;25.24;24.59;96043.13;5115166;28;1156;-60
2022/11/26 07:06:44;;;;;;;;;;;;;;;28.15;21.88;96058.88;5115168;28;1035;-61
2022/11/26 07:09:11;;;;;;;;;;;;;;;28.94;21.02;96057.00;5114864;28;1906;-61
2022/11/26 07:11:37;;;;;;;;;;;;;;;27.85;21.79;96054.50;5115074;28;1063;-62
2022/11/26 07:14:04;;;;;;;;;;;;;;;24.40;23.57;96030.00;5114852;28;1023;-65
2022/11/26 07:16:30;;;;;;;;;;;;;;;18.47;32.94;96003.78;5113639;28;968;-63
2022/11/26 07:18:57;;;;;;;;;;;;;;;14.38;37.79;95980.53;5115235;28;967;-62
2022/11/26 07:21:23;;;;;;;;;;;;;;;12.53;40.17;95977.22;5114952;28;1023;-62
2022/11/26 07:23:49;;;;;;;;;;;;;;;12.05;41.57;95960.47;5114724;28;1024;-62
2022/11/26 07:26:16;;;;;;;;;;;;;;;11.83;41.78;95965.19;5114663;28;1056;-60
2022/11/26 07:28:43;;;;;;;;;;;;;;;11.52;41.51;95956.63;5114491;28;1905;-60
2022/11/26 07:31:11;;;;;;;;;;;;;;;10.61;43.54;95938.38;5114640;28;969;-61
2022/11/26 07:33:37;;;;;;;;;;;;;;;9.72;45.40;95938.41;5114576;28;1024;-61
2022/11/26 07:36:05;;;;;;;;;;;;;;;8.83;47.36;95940.81;5114554;28;1051;-61
2022/11/26 07:38:34;;;;;;;;;;;;;;;8.30;49.36;95925.69;5114522;28;1111;-61
2022/11/26 07:41:04;;;;;;;;;;;;;;;8.03;50.01;95927.00;5113168;28;908;-61
2022/11/26 07:43:33;;;;;;;;;;;;;;;7.87;50.51;95929.22;5114418;28;1044;-81
2022/11/26 07:46:03;;;;;;;;;;;;;;;7.65;50.61;95922.16;5114125;28;1542;-61
2022/11/26 07:48:29;;;;;;;;;;;;;;;7.51;51.77;95925.91;5114487;28;1992;-61
2022/11/26 07:50:56;;;;;;;;;;;;;;;7.36;51.86;95928.84;5114566;28;1022;-60
2022/11/26 07:53:22;;;;;;;;;;;;;;;7.27;52.10;95924.25;5114435;28;1027;-60
2022/11/26 07:55:48;;;;;;;;;;;;;;;7.21;52.63;95930.91;5114480;28;1510;-60
2022/11/26 07:58:14;;;;;;;;;;;;;;;7.19;52.34;95927.53;5114156;28;1044;-61
2022/11/26 08:00:40;;;;;;;;;;;;;;;7.17;53.30;95920.63;5114383;28;976;-60
2022/11/26 08:03:06;;;;;;;;;;;;;;;7.25;53.29;95918.22;5114012;28;1253;-61
2022/11/26 08:05:32;;;;;;;;;;;;;;;7.21;53.32;95919.44;5114056;28;1149;-61
2022/11/26 08:07:58;;;;;;;;;;;;;;;7.35;54.71;95918.31;5112799;28;1910;-61
2022/11/26 08:10:24;;;;;;;;;;;;;;;7.60;53.67;95920.69;5114062;28;1079;-61
2022/11/26 08:12:51;;;;;;;;;;;;;;;7.74;53.52;95932.03;5113058;28;1570;-61
2022/11/26 08:15:17;;;;;;;;;;;;;;;7.82;52.70;95930.47;5113913;28;1580;-72
2022/11/26 08:17:43;;;;;;;;;;;;;;;7.95;53.19;95938.28;5114072;28;999;-61
2022/11/26 08:20:10;;;;;;;;;;;;;;;8.24;52.63;95935.03;5113919;28;965;-61
2022/11/26 08:22:36;;;;;;;;;;;;;;;8.40;52.13;95935.47;5112773;28;1017;-61
2022/11/26 08:25:02;;;;;;;;;;;;;;;8.53;51.83;95932.63;5113805;28;1050;-59
2022/11/26 08:27:30;;;;;;;;;;;;;;;8.72;51.67;95942.56;5113811;28;1035;-62
2022/11/26 08:29:56;;;;;;;;;;;;;;;8.82;52.02;95941.78;5113718;28;1039;-62
2022/11/26 08:32:22;;;;;;;;;;;;;;;8.88;50.96;95943.94;5112800;28;1052;-62
2022/11/26 08:34:48;;;;;;;;;;;;;;;8.84;51.29;95939.84;5113978;28;1249;-62
2022/11/26 08:37:14;;;;;;;;;;;;;;;8.79;51.76;95937.56;5113840;28;964;-62
2022/11/26 08:39:40;;;;;;;;;;;;;;;8.80;51.64;95939.25;5112565;28;1091;-62
2022/11/26 08:42:06;;;;;;;;;;;;;;;8.81;52.62;95940.13;5112760;28;1023;-61
2022/11/26 08:44:32;;;;;;;;;;;;;;;8.84;51.80;95942.50;5113715;28;1163;-62
2022/11/26 08:46:58;;;;;;;;;;;;;;;8.90;52.65;95940.16;5109831;28;1100;-62
2022/11/26 08:49:25;;;;;;;;;;;;;;;9.13;52.71;95937.34;5116085;28;1909;-62
2022/11/26 08:51:53;;;;;;;;;;;;;;;9.73;51.11;95940.94;5117816;28;983;-62
2022/11/26 08:54:19;;;;;;;;;;;;;;;13.55;43.76;95957.06;5117751;27;964;-62
2022/11/26 08:56:45;;;;;;;;;;;;;;;19.12;33.76;95987.63;5117639;28;1036;-62
2022/11/26 08:59:11;;;;;;;;;;;;;;;20.18;31.78;95993.03;5117510;28;1176;-62
2022/11/26 09:01:37;;;;;;;;;;;;;;;20.40;31.56;95998.38;5117796;28;1038;-63
2022/11/26 09:04:04;;;;;;;;;;;;;;;21.56;30.25;96006.44;5117395;28;1157;-63
2022/11/26 09:06:31;;;;;;;;;;;;;;;22.41;28.48;95995.66;5117626;28;987;-62
2022/11/26 09:09:13;;;;;;;;;;;;;;;24.32;27.02;96011.16;5117051;28;1909;-62
2022/11/26 09:11:55;;;;;;;;;;;;;;;24.71;25.82;96023.56;5117459;28;1043;-62
2022/11/26 09:14:23;;;;;;;;;;;;;;;25.53;25.53;96035.97;5117728;28;1014;-62
2022/11/26 09:16:50;;;;;;;;;;;;;;;24.26;25.79;96025.72;5117401;28;1128;-63
2022/11/26 09:19:16;;;;;;;;;;;;;;;20.88;29.76;96008.41;5115834;28;1068;-63
2022/11/26 09:21:43;;;;;;;;;;;;;;;18.47;33.11;95989.41;5117213;28;1043;-62
2022/11/26 09:24:09;;;;;;;;;;;;;;;16.84;35.36;95979.22;5117321;28;1027;-62
2022/11/26 09:26:35;;;;;;;;;;;;;;;15.78;37.47;95959.84;5117300;28;1003;-61
2022/11/26 09:29:02;;;;;;;;;;;;;;;15.39;38.51;95950.66;5115459;28;1975;-62
2022/11/26 09:31:28;;;;;;;;;;;;;;;15.99;37.76;95957.41;5117130;28;1038;-63
2022/11/26 09:33:55;;;;;;;;;;;;;;;16.72;36.05;95962.56;5117029;28;976;-63
2022/11/26 09:36:21;;;;;;;;;;;;;;;17.21;35.62;95961.38;5116904;28;945;-61
2022/11/26 09:38:47;;;;;;;;;;;;;;;17.82;34.58;95956.69;5116837;28;1215;-66
2022/11/26 09:41:32;;;;;;;;;;;;;;;18.93;33.25;95956.59;5116726;28;1020;-62
2022/11/26 09:43:58;;;;;;;;;;;;;;;20.64;30.76;95967.13;5116768;28;1023;-61
2022/11/26 09:46:30;;;;;;;;;;;;;;;22.77;28.38;95977.06;5116630;28;1226;-61
2022/11/26 09:48:57;;;;;;;;;;;;;;;24.44;26.16;95971.09;5116222;28;1989;-61
2022/11/26 09:51:24;;;;;;;;;;;;;;;25.03;25.62;95982.34;5116782;28;1143;-61
2022/11/26 09:53:50;;;;;;;;;;;;;;;27.01;24.00;95985.63;5116743;28;1030;-62
2022/11/26 09:56:23;;;;;;;;;;;;;;;30.52;20.49;96010.06;5115320;28;968;-61
2022/11/26 09:58:56;;;;;;;;;;;;;;;33.78;18.97;96019.72;5116215;28;1115;-62
2022/11/26 10:01:23;;;;;;;;;;;;;;;35.51;16.79;96032.16;5115067;28;1031;-62
2022/11/26 10:03:49;;;;;;;;;;;;;;;36.59;15.64;96036.88;5116227;28;1024;-62
2022/11/26 10:06:25;;;;;;;;;;;;;;;37.38;15.12;96041.50;5116311;28;1289;-62
2022/11/26 10:08:57;;;;;;;;;;;;;;;37.80;14.56;96035.88;5115929;28;1941;-62
2022/11/26 10:11:33;;;;;;;;;;;;;;;37.83;14.98;96033.28;5116258;28;1043;-62
2022/11/26 10:14:03;;;;;;;;;;;;;;;37.41;15.04;96023.31;5116036;28;964;-62
2022/11/26 10:16:37;;;;;;;;;;;;;;;36.94;14.92;96026.22;5116003;28;1044;-62
2022/11/26 10:19:20;;;;;;;;;;;;;;;36.11;15.14;96018.47;5115849;28;1168;-62
2022/11/26 10:21:49;;;;;;;;;;;;;;;34.34;16.31;96013.75;5115985;28;1059;-62
2022/11/26 10:24:19;;;;;;;;;;;;;;;30.79;19.12;95993.38;5115767;28;1103;-62
2022/11/26 10:26:45;;;;;;;;;;;;;;;26.22;22.42;95961.50;5114668;28;1044;-61
2022/11/26 10:29:14;;;;;;;;;;;;;;;22.84;25.81;95952.47;5115560;28;1934;-60
2022/11/26 10:31:43;;;;;;;;;;;;;;;20.74;27.77;95940.44;5115827;28;1036;-61
2022/11/26 10:34:15;;;;;;;;;;;;;;;21.64;27.90;95924.63;5115737;27;1051;-61
2022/11/26 10:36:43;;;;;;;;;;;;;;;25.74;24.04;95935.97;5115661;28;1048;-62
2022/11/26 10:39:12;;;;;;;;;;;;;;;29.85;19.43;95956.34;5115134;28;1083;-62
2022/11/26 10:41:39;;;;;;;;;;;;;;;32.69;17.59;95968.72;5115787;28;949;-62
2022/11/26 10:44:23;;;;;;;;;;;;;;;34.06;16.23;95982.06;5115459;28;921;-63
2022/11/26 10:46:49;;;;;;;;;;;;;;;34.60;15.57;95977.38;5115480;28;1095;-62
2022/11/26 10:49:26;;;;;;;;;;;;;;;34.68;15.59;95976.78;5115016;28;1903;-62
2022/11/26 10:51:53;;;;;;;;;;;;;;;34.37;15.73;95968.72;5114483;28;975;-63
2022/11/26 10:54:32;;;;;;;;;;;;;;;33.96;15.36;95974.66;5114354;28;972;-63
2022/11/26 10:57:07;;;;;;;;;;;;;;;33.30;15.66;95967.63;5115458;28;964;-62
2022/11/26 10:59:39;;;;;;;;;;;;;;;32.36;16.93;95959.91;5114170;28;1165;-63
2022/11/26 11:02:23;;;;;;;;;;;;;;;30.77;17.77;95951.38;5114751;28;1052;-62
2022/11/26 11:04:51;;;;;;;;;;;;;;;27.68;19.29;95943.78;5115214;28;1169;-62
2022/11/26 11:07:32;;;;;;;;;;;;;;;24.36;22.72;95925.78;5115377;28;951;-62
2022/11/26 11:10:01;;;;;;;;;;;;;;;21.15;25.97;95904.09;5114928;28;1907;-61
2022/11/26 11:12:27;;;;;;;;;;;;;;;18.84;28.52;95890.03;5114157;28;1071;-61
2022/11/26 11:14:53;;;;;;;;;;;;;;;17.35;30.39;95876.78;5115054;28;980;-60
2022/11/26 11:17:30;;;;;;;;;;;;;;;16.31;32.09;95871.06;5114880;28;1032;-60
2022/11/26 11:19:58;;;;;;;;;;;;;;;15.49;33.23;95853.44;5114762;28;1044;-60
2022/11/26 11:22:25;;;;;;;;;;;;;;;15.03;33.66;95847.88;5114582;28;1087;-60
2022/11/26 11:24:52;;;;;;;;;;;;;;;14.86;35.86;95838.13;5114749;28;1086;-60
2022/11/26 11:27:38;;;;;;;;;;;;;;;14.72;35.07;95834.28;5114575;28;1055;-60
2022/11/26 11:30:05;;;;;;;;;;;;;;;14.66;35.42;95834.97;5114464;28;1322;-60
2022/11/26 11:32:35;;;;;;;;;;;;;;;14.61;35.59;95833.63;5114288;28;1036;-61
2022/11/26 11:35:12;;;;;;;;;;;;;;;14.45;35.92;95836.28;5114623;28;1023;-60
2022/11/26 11:37:46;;;;;;;;;;;;;;;14.43;36.02;95830.22;5113302;28;957;-60
2022/11/26 11:40:13;;;;;;;;;;;;;;;14.28;34.52;95819.28;5113172;28;1036;-60
2022/11/26 11:42:40;;;;;;;;;;;;;;;14.19;35.05;95820.28;5114319;28;1191;-60
2022/11/26 11:45:17;;;;;;;;;;;;;;;14.03;34.14;95819.28;5113032;28;1290;-60
2022/11/26 11:47:48;;;;;;;;;;;;;;;13.92;35.01;95824.13;5114348;28;1902;-60
2022/11/26 11:50:20;;;;;;;;;;;;;;;13.87;35.70;95808.50;5114209;28;1098;-60
2022/11/26 11:53:04;;;;;;;;;;;;;;;13.90;34.87;95807.34;5113866;28;1015;-60
2022/11/26 11:55:48;;;;;;;;;;;;;;;13.83;36.40;95810.69;5114261;28;1083;-61
2022/11/26 11:58:30;;;;;;;;;;;;;;;13.70;36.68;95810.31;5114188;28;1103;-60
2022/11/26 12:01:14;;;;;;;;;;;;;;;13.57;36.75;95808.09;5114080;28;1100;-60
2022/11/26 12:03:40;;;;;;;;;;;;;;;13.34;35.33;95796.28;5114021;28;1025;-60
2022/11/26 12:06:06;;;;;;;;;;;;;;;13.26;36.29;95802.41;5114006;28;1165;-60
2022/11/26 12:08:38;;;;;;;;;;;;;;;13.21;36.14;95797.53;5112809;28;1996;-60
2022/11/26 12:11:16;;;;;;;;;;;;;;;13.24;36.65;95788.31;5113112;28;1214;-60
2022/11/26 12:13:54;;;;;;;;;;;;;;;13.24;37.08;95797.22;5113906;28;1045;-60
2022/11/26 12:16:23;;;;;;;;;;;;;;;13.19;36.18;95787.97;5114045;28;980;-60
2022/11/26 12:18:57;;;;;;;;;;;;;;;13.20;36.80;95785.13;5112711;28;1168;-61
2022/11/26 12:21:42;;;;;;;;;;;;;;;13.13;37.26;95775.16;5113876;28;976;-61
2022/11/26 12:24:13;;;;;;;;;;;;;;;13.04;36.93;95783.19;5113229;28;980;-60
2022/11/26 12:26:41;;;;;;;;;;;;;;;12.99;37.28;95768.56;5114006;28;976;-61
2022/11/26 12:29:11;;;;;;;;;;;;;;;12.97;37.05;95771.41;5113399;28;1994;-60
2022/11/26 12:31:47;;;;;;;;;;;;;;;12.87;38.32;95770.69;5113839;28;1022;-60
2022/11/26 12:34:27;;;;;;;;;;;;;;;12.80;38.41;95770.50;5113949;28;1038;-64
2022/11/26 12:37:05;;;;;;;;;;;;;;;12.72;37.41;95770.44;5113852;28;957;-61
2022/11/26 12:39:34;;;;;;;;;;;;;;;12.64;37.74;95776.63;5113547;28;1195;-61
2022/11/26 12:42:27;;;;;;;;;;;;;;;12.66;38.65;95779.16;5112366;28;1063;-60
2022/11/26 12:44:55;;;;;;;;;;;;;;;12.56;39.22;95773.03;5109450;28;1157;-61
2022/11/26 12:47:27;;;;;;;;;;;;;;;12.46;36.89;95774.00;5113875;28;1040;-60
2022/11/26 12:50:16;;;;;;;;;;;;;;;12.44;38.12;95773.28;5113264;28;1917;-60
2022/11/26 12:52:51;;;;;;;;;;;;;;;12.42;38.56;95777.97;5112998;28;1057;-60
2022/11/26 12:55:36;;;;;;;;;;;;;;;12.38;38.57;95771.25;5113501;28;1051;-60
2022/11/26 12:58:25;;;;;;;;;;;;;;;12.43;38.29;95773.47;5113385;28;1040;-60
2022/11/26 13:00:53;;;;;;;;;;;;;;;12.44;39.89;95769.78;5104982;28;1288;-61
2022/11/26 13:03:25;;;;;;;;;;;;;;;12.42;39.30;95774.47;5113355;28;1023;-61
2022/11/26 13:06:10;;;;;;;;;;;;;;;12.43;40.26;95776.16;5113232;28;1121;-61
2022/11/26 13:08:39;;;;;;;;;;;;;;;12.43;41.31;95768.94;5113556;28;1905;-61
2022/11/26 13:11:11;;;;;;;;;;;;;;;12.37;42.39;95766.91;5113407;28;1095;-61
2022/11/26 13:13:51;;;;;;;;;;;;;;;12.29;42.04;95769.50;5113463;28;1039;-61